Alice International Airport
KALI : now visible

Airfield :











YOU CAN JOIN US ON...

 
LOGIN :

Register | Disclaimer

   EN    FR    IT 

 









Legend :    VFR   Marginal VFR   IFR   Intensive IFR   Very Intensive IFR
Visi :
Ceiling :
>= 8 km
>= 3000ft
5 to 8 km
1000 to 3000 ft
1500m to 5 km
500 to 1000 ft
800 to 1500m
200 to 500 ft
< 800m
< 200 ft
Symbols :   Thunderstorms  Fog  Heavy snow  Heavy precipitations  Wind > 20 kt






- Airport Elevation : 178 ft


KALI - Alice International

CURRENT METAR :
  • 071453Z AUTO 15008KT 10SM SCT021 SCT034 31/24 A3008 RMK AO2 SLP182 T03060244 51014 $

EXPIRED METARs :
  • 071353Z AUTO 12008KT 10SM CLR 28/26 A3007 RMK AO2 SLP181 T02830256
  • 071253Z AUTO 10003KT 10SM CLR 25/24 A3005 RMK AO2 SLP174 T02500244

TAF KALI
Valid from the 07 at 12:00 until the 08 at 12:00 UTC


071127Z 0712/0812 VRB03KT P6SM FEW015
TEMPO 0712/0713 5SM BR BKN015
FM071600 14010KT P6SM VCSH BKN035 BKN250
FM071800 12012G21KT P6SM VCTS SCT040CB BKN200
FM072300 11018G25KT P6SM SCT050 SCT250
FM080200 13011KT P6SM FEW250
KZHU FIR / North America



MET'MAP, your aeronautical weather chart ! - Copyright ORBIFLY December 2007 - Disclaimer

ORBIFLY MET'MAP TEAM :

Programming & Development : Alexandra Zaïnal
Original concept : Baudouin d'Aumeries
Technical & hardware support : Manuel Goepfert
Assistance : Marc-Olivier Méhu




SOURCES & CREDITS :

   NOAA       Earth
Advisory